sensor_id;sensor_type;location;lat;lon;timestamp;P1;durP1;ratioP1;P2;durP2;ratioP2
11414;SDS011;5763;42.714;23.244;2022-09-09T00:02:18;7.22;;;6.63;;
11414;SDS011;5763;42.714;23.244;2022-09-09T00:04:48;7.80;;;7.00;;
11414;SDS011;5763;42.714;23.244;2022-09-09T00:07:28;12.05;;;7.47;;
11414;SDS011;5763;42.714;23.244;2022-09-09T00:10:17;6.95;;;6.35;;
11414;SDS011;5763;42.714;23.244;2022-09-09T00:12:52;7.70;;;6.70;;
11414;SDS011;5763;42.714;23.244;2022-09-09T00:15:25;7.13;;;6.28;;
11414;SDS011;5763;42.714;23.244;2022-09-09T00:18:00;7.38;;;6.68;;
11414;SDS011;5763;42.714;23.244;2022-09-09T00:20:35;7.03;;;6.32;;
11414;SDS011;5763;42.714;23.244;2022-09-09T00:23:10;8.52;;;7.70;;
11414;SDS011;5763;42.714;23.244;2022-09-09T00:25:42;8.10;;;6.88;;
11414;SDS011;5763;42.714;23.244;2022-09-09T00:28:16;7.47;;;6.68;;
11414;SDS011;5763;42.714;23.244;2022-09-09T00:30:45;7.65;;;6.95;;
11414;SDS011;5763;42.714;23.244;2022-09-09T00:33:15;8.38;;;7.57;;
11414;SDS011;5763;42.714;23.244;2022-09-09T00:35:48;8.00;;;7.18;;
11414;SDS011;5763;42.714;23.244;2022-09-09T00:38:18;7.95;;;7.22;;
11414;SDS011;5763;42.714;23.244;2022-09-09T00:40:51;7.72;;;6.97;;
11414;SDS011;5763;42.714;23.244;2022-09-09T00:43:25;8.90;;;7.32;;
11414;SDS011;5763;42.714;23.244;2022-09-09T00:46:05;7.78;;;6.95;;
11414;SDS011;5763;42.714;23.244;2022-09-09T00:48:51;8.07;;;7.20;;
11414;SDS011;5763;42.714;23.244;2022-09-09T00:51:29;7.95;;;7.15;;
11414;SDS011;5763;42.714;23.244;2022-09-09T00:54:19;8.85;;;7.57;;
11414;SDS011;5763;42.714;23.244;2022-09-09T00:57:10;7.40;;;6.70;;
11414;SDS011;5763;42.714;23.244;2022-09-09T00:59:45;7.68;;;6.97;;
11414;SDS011;5763;42.714;23.244;2022-09-09T01:02:18;8.20;;;7.15;;
11414;SDS011;5763;42.714;23.244;2022-09-09T01:04:51;7.28;;;6.63;;
11414;SDS011;5763;42.714;23.244;2022-09-09T01:07:19;8.13;;;7.32;;
11414;SDS011;5763;42.714;23.244;2022-09-09T01:09:51;9.23;;;6.88;;
11414;SDS011;5763;42.714;23.244;2022-09-09T01:12:28;7.43;;;6.72;;
11414;SDS011;5763;42.714;23.244;2022-09-09T01:15:07;8.00;;;7.30;;
11414;SDS011;5763;42.714;23.244;2022-09-09T01:17:41;8.98;;;7.20;;
11414;SDS011;5763;42.714;23.244;2022-09-09T01:20:17;7.22;;;6.57;;
11414;SDS011;5763;42.714;23.244;2022-09-09T01:22:52;8.10;;;7.03;;
11414;SDS011;5763;42.714;23.244;2022-09-09T01:26:03;8.35;;;6.97;;
11414;SDS011;5763;42.714;23.244;2022-09-09T01:28:38;7.40;;;6.80;;
11414;SDS011;5763;42.714;23.244;2022-09-09T01:31:06;9.35;;;7.63;;
11414;SDS011;5763;42.714;23.244;2022-09-09T01:33:37;7.63;;;7.00;;
11414;SDS011;5763;42.714;23.244;2022-09-09T01:36:05;8.27;;;7.25;;
11414;SDS011;5763;42.714;23.244;2022-09-09T01:38:36;8.10;;;7.30;;
11414;SDS011;5763;42.714;23.244;2022-09-09T01:41:05;8.18;;;7.43;;
11414;SDS011;5763;42.714;23.244;2022-09-09T01:43:32;7.53;;;6.78;;
11414;SDS011;5763;42.714;23.244;2022-09-09T01:45:59;9.88;;;7.68;;
11414;SDS011;5763;42.714;23.244;2022-09-09T01:48:28;8.30;;;7.60;;
11414;SDS011;5763;42.714;23.244;2022-09-09T01:50:56;7.43;;;6.80;;
11414;SDS011;5763;42.714;23.244;2022-09-09T01:53:23;9.52;;;7.65;;
11414;SDS011;5763;42.714;23.244;2022-09-09T01:55:54;9.07;;;7.15;;
11414;SDS011;5763;42.714;23.244;2022-09-09T01:58:37;7.97;;;7.28;;
11414;SDS011;5763;42.714;23.244;2022-09-09T02:01:17;7.97;;;7.18;;
11414;SDS011;5763;42.714;23.244;2022-09-09T02:03:55;7.43;;;6.75;;
11414;SDS011;5763;42.714;23.244;2022-09-09T02:06:25;7.68;;;6.88;;
11414;SDS011;5763;42.714;23.244;2022-09-09T02:08:57;7.78;;;7.18;;
11414;SDS011;5763;42.714;23.244;2022-09-09T02:11:26;9.13;;;7.10;;
11414;SDS011;5763;42.714;23.244;2022-09-09T02:13:57;7.95;;;7.15;;
11414;SDS011;5763;42.714;23.244;2022-09-09T02:16:28;8.40;;;7.45;;
11414;SDS011;5763;42.714;23.244;2022-09-09T02:19:01;8.75;;;7.88;;
11414;SDS011;5763;42.714;23.244;2022-09-09T02:21:33;8.35;;;7.28;;
11414;SDS011;5763;42.714;23.244;2022-09-09T02:24:02;7.63;;;6.95;;
11414;SDS011;5763;42.714;23.244;2022-09-09T02:26:33;7.72;;;6.97;;
11414;SDS011;5763;42.714;23.244;2022-09-09T02:29:05;9.15;;;8.10;;
11414;SDS011;5763;42.714;23.244;2022-09-09T02:31:36;9.57;;;7.80;;
11414;SDS011;5763;42.714;23.244;2022-09-09T02:34:05;11.45;;;7.90;;
11414;SDS011;5763;42.714;23.244;2022-09-09T02:36:36;9.45;;;8.07;;
11414;SDS011;5763;42.714;23.244;2022-09-09T02:39:05;8.38;;;7.45;;
11414;SDS011;5763;42.714;23.244;2022-09-09T02:41:36;9.05;;;7.95;;
11414;SDS011;5763;42.714;23.244;2022-09-09T02:44:08;8.20;;;7.50;;
11414;SDS011;5763;42.714;23.244;2022-09-09T02:46:44;8.27;;;7.47;;
11414;SDS011;5763;42.714;23.244;2022-09-09T02:49:25;8.02;;;7.22;;
11414;SDS011;5763;42.714;23.244;2022-09-09T02:52:00;8.05;;;7.28;;
11414;SDS011;5763;42.714;23.244;2022-09-09T02:54:29;7.88;;;7.10;;
11414;SDS011;5763;42.714;23.244;2022-09-09T02:57:00;9.38;;;7.40;;
11414;SDS011;5763;42.714;23.244;2022-09-09T02:59:32;8.27;;;7.57;;
11414;SDS011;5763;42.714;23.244;2022-09-09T03:01:59;8.45;;;7.65;;
11414;SDS011;5763;42.714;23.244;2022-09-09T03:04:26;8.68;;;7.90;;
11414;SDS011;5763;42.714;23.244;2022-09-09T03:06:53;7.97;;;7.28;;
11414;SDS011;5763;42.714;23.244;2022-09-09T03:09:20;8.35;;;7.40;;
11414;SDS011;5763;42.714;23.244;2022-09-09T03:11:47;8.90;;;8.10;;
11414;SDS011;5763;42.714;23.244;2022-09-09T03:14:14;9.32;;;8.43;;
11414;SDS011;5763;42.714;23.244;2022-09-09T03:16:43;8.60;;;7.80;;
11414;SDS011;5763;42.714;23.244;2022-09-09T03:19:10;8.63;;;7.90;;
11414;SDS011;5763;42.714;23.244;2022-09-09T03:21:37;10.23;;;8.38;;
11414;SDS011;5763;42.714;23.244;2022-09-09T03:24:05;9.23;;;8.32;;
11414;SDS011;5763;42.714;23.244;2022-09-09T03:26:31;10.77;;;8.32;;
11414;SDS011;5763;42.714;23.244;2022-09-09T03:28:58;9.95;;;8.55;;
11414;SDS011;5763;42.714;23.244;2022-09-09T03:31:26;9.18;;;7.95;;
11414;SDS011;5763;42.714;23.244;2022-09-09T03:33:56;8.90;;;7.35;;
11414;SDS011;5763;42.714;23.244;2022-09-09T03:36:24;8.18;;;7.13;;
11414;SDS011;5763;42.714;23.244;2022-09-09T03:38:53;10.35;;;8.38;;
11414;SDS011;5763;42.714;23.244;2022-09-09T03:41:20;8.75;;;7.88;;
11414;SDS011;5763;42.714;23.244;2022-09-09T03:43:49;9.98;;;8.38;;
11414;SDS011;5763;42.714;23.244;2022-09-09T03:46:15;8.45;;;7.63;;
11414;SDS011;5763;42.714;23.244;2022-09-09T03:48:42;8.38;;;7.57;;
11414;SDS011;5763;42.714;23.244;2022-09-09T03:51:10;8.40;;;7.57;;
11414;SDS011;5763;42.714;23.244;2022-09-09T03:53:37;8.80;;;7.90;;
11414;SDS011;5763;42.714;23.244;2022-09-09T03:56:05;8.68;;;7.88;;
11414;SDS011;5763;42.714;23.244;2022-09-09T03:58:32;9.30;;;8.43;;
11414;SDS011;5763;42.714;23.244;2022-09-09T04:01:01;8.27;;;7.40;;
11414;SDS011;5763;42.714;23.244;2022-09-09T04:03:29;9.20;;;7.75;;
11414;SDS011;5763;42.714;23.244;2022-09-09T04:05:58;8.57;;;7.82;;
11414;SDS011;5763;42.714;23.244;2022-09-09T04:08:28;9.43;;;8.23;;
11414;SDS011;5763;42.714;23.244;2022-09-09T04:10:56;9.10;;;7.88;;
11414;SDS011;5763;42.714;23.244;2022-09-09T04:13:24;10.45;;;8.85;;
11414;SDS011;5763;42.714;23.244;2022-09-09T04:15:51;10.02;;;8.55;;
11414;SDS011;5763;42.714;23.244;2022-09-09T04:18:19;9.68;;;8.60;;
11414;SDS011;5763;42.714;23.244;2022-09-09T04:20:47;9.80;;;8.40;;
11414;SDS011;5763;42.714;23.244;2022-09-09T04:23:13;9.80;;;8.90;;
11414;SDS011;5763;42.714;23.244;2022-09-09T04:25:44;9.63;;;8.18;;
11414;SDS011;5763;42.714;23.244;2022-09-09T04:28:12;9.45;;;8.55;;
11414;SDS011;5763;42.714;23.244;2022-09-09T04:30:39;12.80;;;8.77;;
11414;SDS011;5763;42.714;23.244;2022-09-09T04:33:06;8.52;;;7.65;;
11414;SDS011;5763;42.714;23.244;2022-09-09T04:35:34;11.13;;;8.40;;
11414;SDS011;5763;42.714;23.244;2022-09-09T04:38:01;9.25;;;8.23;;
11414;SDS011;5763;42.714;23.244;2022-09-09T04:40:29;10.35;;;9.23;;
11414;SDS011;5763;42.714;23.244;2022-09-09T04:42:58;10.18;;;9.25;;
11414;SDS011;5763;42.714;23.244;2022-09-09T04:45:25;9.77;;;8.88;;
11414;SDS011;5763;42.714;23.244;2022-09-09T04:47:52;9.48;;;8.52;;
11414;SDS011;5763;42.714;23.244;2022-09-09T04:50:20;9.68;;;8.82;;
11414;SDS011;5763;42.714;23.244;2022-09-09T04:52:46;9.63;;;8.63;;
11414;SDS011;5763;42.714;23.244;2022-09-09T04:55:13;10.65;;;9.02;;
11414;SDS011;5763;42.714;23.244;2022-09-09T04:57:40;9.23;;;8.10;;
11414;SDS011;5763;42.714;23.244;2022-09-09T05:00:10;9.93;;;8.65;;
11414;SDS011;5763;42.714;23.244;2022-09-09T05:02:38;9.90;;;8.93;;
11414;SDS011;5763;42.714;23.244;2022-09-09T05:05:07;8.82;;;7.93;;
11414;SDS011;5763;42.714;23.244;2022-09-09T05:07:36;9.15;;;8.35;;
11414;SDS011;5763;42.714;23.244;2022-09-09T05:10:03;8.85;;;8.02;;
11414;SDS011;5763;42.714;23.244;2022-09-09T05:12:30;9.25;;;8.35;;
11414;SDS011;5763;42.714;23.244;2022-09-09T05:14:58;9.55;;;8.65;;
11414;SDS011;5763;42.714;23.244;2022-09-09T05:17:26;10.95;;;8.27;;
11414;SDS011;5763;42.714;23.244;2022-09-09T05:19:54;9.27;;;8.38;;
11414;SDS011;5763;42.714;23.244;2022-09-09T05:22:22;10.32;;;9.38;;
11414;SDS011;5763;42.714;23.244;2022-09-09T05:24:48;11.80;;;9.63;;
11414;SDS011;5763;42.714;23.244;2022-09-09T05:27:16;15.77;;;9.70;;
11414;SDS011;5763;42.714;23.244;2022-09-09T05:29:44;12.05;;;9.95;;
11414;SDS011;5763;42.714;23.244;2022-09-09T05:32:11;10.48;;;9.23;;
11414;SDS011;5763;42.714;23.244;2022-09-09T05:34:40;11.55;;;9.20;;
11414;SDS011;5763;42.714;23.244;2022-09-09T05:37:07;11.32;;;10.10;;
11414;SDS011;5763;42.714;23.244;2022-09-09T05:39:33;10.20;;;9.18;;
11414;SDS011;5763;42.714;23.244;2022-09-09T05:42:02;10.85;;;9.75;;
11414;SDS011;5763;42.714;23.244;2022-09-09T05:44:30;13.07;;;11.18;;
11414;SDS011;5763;42.714;23.244;2022-09-09T05:46:57;12.88;;;10.70;;
11414;SDS011;5763;42.714;23.244;2022-09-09T05:49:24;13.82;;;10.48;;
11414;SDS011;5763;42.714;23.244;2022-09-09T05:51:52;12.32;;;10.38;;
11414;SDS011;5763;42.714;23.244;2022-09-09T05:54:19;12.38;;;11.13;;
11414;SDS011;5763;42.714;23.244;2022-09-09T05:56:46;13.13;;;11.20;;
11414;SDS011;5763;42.714;23.244;2022-09-09T05:59:16;12.05;;;10.82;;
11414;SDS011;5763;42.714;23.244;2022-09-09T06:01:43;13.10;;;11.90;;
11414;SDS011;5763;42.714;23.244;2022-09-09T06:04:10;13.63;;;11.23;;
11414;SDS011;5763;42.714;23.244;2022-09-09T06:06:38;12.55;;;11.20;;
11414;SDS011;5763;42.714;23.244;2022-09-09T06:09:08;13.38;;;11.35;;
11414;SDS011;5763;42.714;23.244;2022-09-09T06:11:36;12.13;;;10.93;;
11414;SDS011;5763;42.714;23.244;2022-09-09T06:14:05;13.38;;;10.82;;
11414;SDS011;5763;42.714;23.244;2022-09-09T06:16:33;11.95;;;10.70;;
11414;SDS011;5763;42.714;23.244;2022-09-09T06:19:02;12.07;;;10.88;;
11414;SDS011;5763;42.714;23.244;2022-09-09T06:21:30;16.23;;;11.18;;
11414;SDS011;5763;42.714;23.244;2022-09-09T06:23:58;12.82;;;11.38;;
11414;SDS011;5763;42.714;23.244;2022-09-09T06:26:27;12.77;;;11.02;;
11414;SDS011;5763;42.714;23.244;2022-09-09T06:28:56;11.48;;;10.35;;
11414;SDS011;5763;42.714;23.244;2022-09-09T06:31:24;11.90;;;10.65;;
11414;SDS011;5763;42.714;23.244;2022-09-09T06:33:55;12.30;;;10.75;;
11414;SDS011;5763;42.714;23.244;2022-09-09T06:36:24;12.20;;;10.90;;
11414;SDS011;5763;42.714;23.244;2022-09-09T06:38:52;13.02;;;11.63;;
11414;SDS011;5763;42.714;23.244;2022-09-09T06:41:21;12.30;;;10.82;;
11414;SDS011;5763;42.714;23.244;2022-09-09T06:43:52;11.95;;;10.75;;
11414;SDS011;5763;42.714;23.244;2022-09-09T06:46:21;13.90;;;10.90;;
11414;SDS011;5763;42.714;23.244;2022-09-09T06:48:52;11.95;;;10.75;;
11414;SDS011;5763;42.714;23.244;2022-09-09T06:51:20;14.05;;;11.77;;
11414;SDS011;5763;42.714;23.244;2022-09-09T06:53:50;12.30;;;11.15;;
11414;SDS011;5763;42.714;23.244;2022-09-09T06:56:19;12.05;;;10.85;;
11414;SDS011;5763;42.714;23.244;2022-09-09T06:58:48;12.18;;;10.85;;
11414;SDS011;5763;42.714;23.244;2022-09-09T07:01:19;12.93;;;10.90;;
11414;SDS011;5763;42.714;23.244;2022-09-09T07:03:48;16.52;;;11.77;;
11414;SDS011;5763;42.714;23.244;2022-09-09T07:06:17;15.20;;;11.20;;
11414;SDS011;5763;42.714;23.244;2022-09-09T07:08:48;12.48;;;11.18;;
11414;SDS011;5763;42.714;23.244;2022-09-09T07:11:16;11.98;;;10.73;;
11414;SDS011;5763;42.714;23.244;2022-09-09T07:13:43;13.50;;;11.07;;
11414;SDS011;5763;42.714;23.244;2022-09-09T07:16:10;12.98;;;11.43;;
11414;SDS011;5763;42.714;23.244;2022-09-09T07:18:41;12.32;;;11.00;;
11414;SDS011;5763;42.714;23.244;2022-09-09T07:21:08;12.35;;;11.15;;
11414;SDS011;5763;42.714;23.244;2022-09-09T07:23:37;12.27;;;11.07;;
11414;SDS011;5763;42.714;23.244;2022-09-09T07:26:07;13.32;;;10.88;;
11414;SDS011;5763;42.714;23.244;2022-09-09T07:28:35;12.13;;;11.00;;
11414;SDS011;5763;42.714;23.244;2022-09-09T07:31:03;11.70;;;10.27;;
11414;SDS011;5763;42.714;23.244;2022-09-09T07:33:31;10.85;;;9.85;;
11414;SDS011;5763;42.714;23.244;2022-09-09T07:36:04;12.73;;;10.55;;
11414;SDS011;5763;42.714;23.244;2022-09-09T07:38:37;12.45;;;10.23;;
11414;SDS011;5763;42.714;23.244;2022-09-09T07:41:05;12.75;;;10.05;;
11414;SDS011;5763;42.714;23.244;2022-09-09T07:43:37;10.80;;;9.60;;
11414;SDS011;5763;42.714;23.244;2022-09-09T07:46:04;10.40;;;9.35;;
11414;SDS011;5763;42.714;23.244;2022-09-09T07:48:32;11.35;;;10.20;;
11414;SDS011;5763;42.714;23.244;2022-09-09T07:51:08;9.95;;;8.95;;
11414;SDS011;5763;42.714;23.244;2022-09-09T07:53:37;9.32;;;8.40;;
11414;SDS011;5763;42.714;23.244;2022-09-09T07:56:06;11.52;;;8.52;;
11414;SDS011;5763;42.714;23.244;2022-09-09T07:58:34;9.60;;;8.27;;
11414;SDS011;5763;42.714;23.244;2022-09-09T08:01:05;9.23;;;8.13;;
11414;SDS011;5763;42.714;23.244;2022-09-09T08:03:34;10.55;;;8.15;;
11414;SDS011;5763;42.714;23.244;2022-09-09T08:06:02;10.05;;;8.18;;
11414;SDS011;5763;42.714;23.244;2022-09-09T08:08:31;10.13;;;8.40;;
11414;SDS011;5763;42.714;23.244;2022-09-09T08:11:01;12.48;;;8.52;;
11414;SDS011;5763;42.714;23.244;2022-09-09T08:13:29;10.65;;;8.15;;
11414;SDS011;5763;42.714;23.244;2022-09-09T08:16:03;9.00;;;8.00;;
11414;SDS011;5763;42.714;23.244;2022-09-09T08:18:31;8.65;;;7.80;;
11414;SDS011;5763;42.714;23.244;2022-09-09T08:20:58;9.63;;;7.75;;
11414;SDS011;5763;42.714;23.244;2022-09-09T08:23:32;11.38;;;7.68;;
11414;SDS011;5763;42.714;23.244;2022-09-09T08:26:03;9.95;;;7.60;;
11414;SDS011;5763;42.714;23.244;2022-09-09T08:28:31;8.75;;;7.28;;
11414;SDS011;5763;42.714;23.244;2022-09-09T08:31:04;9.30;;;7.20;;
11414;SDS011;5763;42.714;23.244;2022-09-09T08:33:32;12.95;;;7.60;;
11414;SDS011;5763;42.714;23.244;2022-09-09T08:35:59;9.55;;;7.35;;
11414;SDS011;5763;42.714;23.244;2022-09-09T08:38:25;8.18;;;6.22;;
11414;SDS011;5763;42.714;23.244;2022-09-09T08:40:56;9.05;;;6.63;;
11414;SDS011;5763;42.714;23.244;2022-09-09T08:43:33;10.05;;;7.47;;
11414;SDS011;5763;42.714;23.244;2022-09-09T08:46:01;8.48;;;6.93;;
11414;SDS011;5763;42.714;23.244;2022-09-09T08:48:39;7.68;;;6.97;;
11414;SDS011;5763;42.714;23.244;2022-09-09T08:51:17;9.57;;;6.38;;
11414;SDS011;5763;42.714;23.244;2022-09-09T08:53:46;8.93;;;6.45;;
11414;SDS011;5763;42.714;23.244;2022-09-09T08:56:21;7.38;;;6.63;;
11414;SDS011;5763;42.714;23.244;2022-09-09T08:58:50;7.65;;;6.78;;
11414;SDS011;5763;42.714;23.244;2022-09-09T09:01:23;8.02;;;6.63;;
11414;SDS011;5763;42.714;23.244;2022-09-09T09:04:29;10.27;;;6.80;;
11414;SDS011;5763;42.714;23.244;2022-09-09T09:07:07;10.10;;;6.60;;
11414;SDS011;5763;42.714;23.244;2022-09-09T09:09:43;9.38;;;6.30;;
11414;SDS011;5763;42.714;23.244;2022-09-09T09:12:19;7.82;;;6.45;;
11414;SDS011;5763;42.714;23.244;2022-09-09T09:14:48;10.02;;;6.57;;
11414;SDS011;5763;42.714;23.244;2022-09-09T09:17:16;7.85;;;6.22;;
11414;SDS011;5763;42.714;23.244;2022-09-09T09:19:46;6.40;;;5.72;;
11414;SDS011;5763;42.714;23.244;2022-09-09T09:22:16;7.10;;;6.32;;
11414;SDS011;5763;42.714;23.244;2022-09-09T09:24:47;7.63;;;6.35;;
11414;SDS011;5763;42.714;23.244;2022-09-09T09:27:21;7.25;;;6.53;;
11414;SDS011;5763;42.714;23.244;2022-09-09T09:29:56;10.35;;;6.80;;
11414;SDS011;5763;42.714;23.244;2022-09-09T09:32:26;9.60;;;6.30;;
11414;SDS011;5763;42.714;23.244;2022-09-09T09:34:57;10.70;;;6.25;;
11414;SDS011;5763;42.714;23.244;2022-09-09T09:37:31;9.52;;;6.15;;
11414;SDS011;5763;42.714;23.244;2022-09-09T09:40:07;9.02;;;6.35;;
11414;SDS011;5763;42.714;23.244;2022-09-09T09:42:37;9.52;;;7.05;;
11414;SDS011;5763;42.714;23.244;2022-09-09T09:45:07;7.47;;;6.45;;
11414;SDS011;5763;42.714;23.244;2022-09-09T09:47:41;8.32;;;6.82;;
11414;SDS011;5763;42.714;23.244;2022-09-09T09:50:15;7.07;;;6.40;;
11414;SDS011;5763;42.714;23.244;2022-09-09T09:52:51;7.05;;;6.35;;
11414;SDS011;5763;42.714;23.244;2022-09-09T09:55:22;9.63;;;8.43;;
11414;SDS011;5763;42.714;23.244;2022-09-09T09:57:51;9.27;;;7.72;;
11414;SDS011;5763;42.714;23.244;2022-09-09T10:00:20;9.25;;;7.35;;
11414;SDS011;5763;42.714;23.244;2022-09-09T10:02:49;7.85;;;7.00;;
11414;SDS011;5763;42.714;23.244;2022-09-09T10:05:18;7.93;;;6.18;;
11414;SDS011;5763;42.714;23.244;2022-09-09T10:07:46;8.02;;;7.05;;
11414;SDS011;5763;42.714;23.244;2022-09-09T10:10:28;7.43;;;6.63;;
11414;SDS011;5763;42.714;23.244;2022-09-09T10:13:17;7.40;;;6.70;;
11414;SDS011;5763;42.714;23.244;2022-09-09T10:15:50;8.77;;;6.25;;
11414;SDS011;5763;42.714;23.244;2022-09-09T10:18:36;6.97;;;6.25;;
11414;SDS011;5763;42.714;23.244;2022-09-09T10:21:15;9.20;;;7.80;;
11414;SDS011;5763;42.714;23.244;2022-09-09T10:23:54;11.10;;;7.32;;
11414;SDS011;5763;42.714;23.244;2022-09-09T10:26:44;9.48;;;8.50;;
11414;SDS011;5763;42.714;23.244;2022-09-09T10:29:28;9.98;;;7.68;;
11414;SDS011;5763;42.714;23.244;2022-09-09T10:32:08;9.27;;;7.03;;
11414;SDS011;5763;42.714;23.244;2022-09-09T10:34:54;11.10;;;7.53;;
11414;SDS011;5763;42.714;23.244;2022-09-09T10:37:37;8.48;;;7.43;;
11414;SDS011;5763;42.714;23.244;2022-09-09T10:40:20;11.27;;;7.15;;
11414;SDS011;5763;42.714;23.244;2022-09-09T10:42:58;14.50;;;8.40;;
11414;SDS011;5763;42.714;23.244;2022-09-09T10:45:34;10.05;;;7.13;;
11414;SDS011;5763;42.714;23.244;2022-09-09T10:48:21;9.35;;;7.32;;
11414;SDS011;5763;42.714;23.244;2022-09-09T10:51:00;13.27;;;8.45;;
11414;SDS011;5763;42.714;23.244;2022-09-09T10:53:43;12.32;;;8.60;;
11414;SDS011;5763;42.714;23.244;2022-09-09T10:56:18;9.07;;;8.02;;
11414;SDS011;5763;42.714;23.244;2022-09-09T10:58:50;9.35;;;7.32;;
11414;SDS011;5763;42.714;23.244;2022-09-09T11:01:22;8.80;;;7.55;;
11414;SDS011;5763;42.714;23.244;2022-09-09T11:03:55;8.38;;;7.50;;
11414;SDS011;5763;42.714;23.244;2022-09-09T11:06:29;8.60;;;7.32;;
11414;SDS011;5763;42.714;23.244;2022-09-09T11:08:59;9.00;;;6.95;;
11414;SDS011;5763;42.714;23.244;2022-09-09T11:11:29;11.50;;;7.25;;
11414;SDS011;5763;42.714;23.244;2022-09-09T11:14:01;10.10;;;6.57;;
11414;SDS011;5763;42.714;23.244;2022-09-09T11:16:38;8.57;;;7.65;;
11414;SDS011;5763;42.714;23.244;2022-09-09T11:19:11;10.60;;;7.20;;
11414;SDS011;5763;42.714;23.244;2022-09-09T11:21:45;10.07;;;6.60;;
11414;SDS011;5763;42.714;23.244;2022-09-09T11:24:14;8.48;;;6.78;;
11414;SDS011;5763;42.714;23.244;2022-09-09T11:26:55;9.45;;;7.65;;
11414;SDS011;5763;42.714;23.244;2022-09-09T11:32:44;8.32;;;7.10;;
11414;SDS011;5763;42.714;23.244;2022-09-09T11:35:26;9.60;;;7.25;;
11414;SDS011;5763;42.714;23.244;2022-09-09T11:38:11;10.43;;;7.05;;
11414;SDS011;5763;42.714;23.244;2022-09-09T11:40:44;10.20;;;6.75;;
11414;SDS011;5763;42.714;23.244;2022-09-09T11:43:13;9.75;;;7.22;;
11414;SDS011;5763;42.714;23.244;2022-09-09T11:45:50;9.30;;;7.07;;
11414;SDS011;5763;42.714;23.244;2022-09-09T11:48:25;7.53;;;6.78;;
11414;SDS011;5763;42.714;23.244;2022-09-09T11:50:59;9.07;;;6.97;;
11414;SDS011;5763;42.714;23.244;2022-09-09T11:53:30;8.20;;;6.85;;
11414;SDS011;5763;42.714;23.244;2022-09-09T11:56:01;8.27;;;6.97;;
11414;SDS011;5763;42.714;23.244;2022-09-09T11:58:53;7.97;;;6.60;;
11414;SDS011;5763;42.714;23.244;2022-09-09T12:01:27;7.90;;;7.10;;
11414;SDS011;5763;42.714;23.244;2022-09-09T12:04:05;8.05;;;6.57;;
11414;SDS011;5763;42.714;23.244;2022-09-09T12:06:45;7.53;;;6.53;;
11414;SDS011;5763;42.714;23.244;2022-09-09T12:09:21;8.75;;;6.53;;
11414;SDS011;5763;42.714;23.244;2022-09-09T12:11:52;7.85;;;6.80;;
11414;SDS011;5763;42.714;23.244;2022-09-09T12:14:19;7.72;;;6.93;;
11414;SDS011;5763;42.714;23.244;2022-09-09T12:16:48;10.20;;;7.68;;
11414;SDS011;5763;42.714;23.244;2022-09-09T12:19:18;8.25;;;6.78;;
11414;SDS011;5763;42.714;23.244;2022-09-09T12:21:53;11.77;;;7.20;;
11414;SDS011;5763;42.714;23.244;2022-09-09T12:24:28;10.25;;;6.95;;
11414;SDS011;5763;42.714;23.244;2022-09-09T12:27:02;8.07;;;7.28;;
11414;SDS011;5763;42.714;23.244;2022-09-09T12:29:43;8.20;;;7.40;;
11414;SDS011;5763;42.714;23.244;2022-09-09T12:32:17;12.05;;;7.97;;
11414;SDS011;5763;42.714;23.244;2022-09-09T12:34:51;11.73;;;7.57;;
11414;SDS011;5763;42.714;23.244;2022-09-09T12:37:27;8.15;;;6.70;;
11414;SDS011;5763;42.714;23.244;2022-09-09T12:39:59;9.70;;;6.65;;
11414;SDS011;5763;42.714;23.244;2022-09-09T12:42:27;10.07;;;6.93;;
11414;SDS011;5763;42.714;23.244;2022-09-09T12:44:56;7.07;;;5.68;;
11414;SDS011;5763;42.714;23.244;2022-09-09T12:47:26;9.07;;;6.47;;
11414;SDS011;5763;42.714;23.244;2022-09-09T12:50:01;8.20;;;6.07;;
11414;SDS011;5763;42.714;23.244;2022-09-09T12:52:29;9.52;;;5.50;;
11414;SDS011;5763;42.714;23.244;2022-09-09T12:54:58;7.13;;;6.13;;
11414;SDS011;5763;42.714;23.244;2022-09-09T12:57:29;9.18;;;6.43;;
11414;SDS011;5763;42.714;23.244;2022-09-09T13:00:06;6.72;;;6.03;;
11414;SDS011;5763;42.714;23.244;2022-09-09T13:02:48;11.43;;;5.82;;
11414;SDS011;5763;42.714;23.244;2022-09-09T13:05:20;8.48;;;6.20;;
11414;SDS011;5763;42.714;23.244;2022-09-09T13:07:48;7.53;;;5.45;;
11414;SDS011;5763;42.714;23.244;2022-09-09T13:10:19;7.07;;;4.90;;
11414;SDS011;5763;42.714;23.244;2022-09-09T13:12:51;7.10;;;5.53;;
11414;SDS011;5763;42.714;23.244;2022-09-09T13:15:19;10.10;;;5.85;;
11414;SDS011;5763;42.714;23.244;2022-09-09T13:17:55;9.80;;;5.22;;
11414;SDS011;5763;42.714;23.244;2022-09-09T13:20:25;8.65;;;5.50;;
11414;SDS011;5763;42.714;23.244;2022-09-09T13:22:52;9.80;;;5.45;;
11414;SDS011;5763;42.714;23.244;2022-09-09T13:25:22;9.25;;;5.70;;
11414;SDS011;5763;42.714;23.244;2022-09-09T13:27:55;8.07;;;5.75;;
11414;SDS011;5763;42.714;23.244;2022-09-09T13:30:26;8.90;;;6.10;;
11414;SDS011;5763;42.714;23.244;2022-09-09T13:32:59;8.02;;;5.80;;
11414;SDS011;5763;42.714;23.244;2022-09-09T13:35:29;13.50;;;6.25;;
11414;SDS011;5763;42.714;23.244;2022-09-09T13:37:56;7.53;;;5.40;;
11414;SDS011;5763;42.714;23.244;2022-09-09T13:40:24;6.35;;;5.63;;
11414;SDS011;5763;42.714;23.244;2022-09-09T13:42:51;7.65;;;5.20;;
11414;SDS011;5763;42.714;23.244;2022-09-09T13:45:22;8.40;;;5.55;;
11414;SDS011;5763;42.714;23.244;2022-09-09T13:47:51;11.60;;;5.75;;
11414;SDS011;5763;42.714;23.244;2022-09-09T13:50:23;9.30;;;5.93;;
11414;SDS011;5763;42.714;23.244;2022-09-09T13:52:54;7.35;;;5.55;;
11414;SDS011;5763;42.714;23.244;2022-09-09T13:55:23;8.50;;;5.18;;
11414;SDS011;5763;42.714;23.244;2022-09-09T13:57:52;5.45;;;4.72;;
11414;SDS011;5763;42.714;23.244;2022-09-09T14:00:21;7.82;;;5.28;;
11414;SDS011;5763;42.714;23.244;2022-09-09T14:02:49;6.25;;;4.97;;
11414;SDS011;5763;42.714;23.244;2022-09-09T14:05:17;7.32;;;5.10;;
11414;SDS011;5763;42.714;23.244;2022-09-09T14:07:44;9.40;;;5.55;;
11414;SDS011;5763;42.714;23.244;2022-09-09T14:10:13;6.75;;;5.35;;
11414;SDS011;5763;42.714;23.244;2022-09-09T14:12:40;9.27;;;4.85;;
11414;SDS011;5763;42.714;23.244;2022-09-09T14:15:09;10.38;;;5.20;;
11414;SDS011;5763;42.714;23.244;2022-09-09T14:17:38;7.22;;;4.75;;
11414;SDS011;5763;42.714;23.244;2022-09-09T14:20:05;6.80;;;5.53;;
11414;SDS011;5763;42.714;23.244;2022-09-09T14:22:34;5.40;;;4.50;;
11414;SDS011;5763;42.714;23.244;2022-09-09T14:25:02;6.40;;;5.05;;
11414;SDS011;5763;42.714;23.244;2022-09-09T14:27:31;8.30;;;5.03;;
11414;SDS011;5763;42.714;23.244;2022-09-09T14:29:58;6.40;;;5.07;;
11414;SDS011;5763;42.714;23.244;2022-09-09T14:32:25;7.35;;;4.63;;
11414;SDS011;5763;42.714;23.244;2022-09-09T14:34:52;7.65;;;4.75;;
11414;SDS011;5763;42.714;23.244;2022-09-09T14:37:20;8.60;;;5.13;;
11414;SDS011;5763;42.714;23.244;2022-09-09T14:39:48;10.57;;;5.18;;
11414;SDS011;5763;42.714;23.244;2022-09-09T14:42:15;8.50;;;4.95;;
11414;SDS011;5763;42.714;23.244;2022-09-09T14:44:43;9.43;;;5.63;;
11414;SDS011;5763;42.714;23.244;2022-09-09T14:47:10;8.93;;;5.28;;
11414;SDS011;5763;42.714;23.244;2022-09-09T14:49:38;11.30;;;6.50;;
11414;SDS011;5763;42.714;23.244;2022-09-09T14:52:05;7.47;;;5.90;;
11414;SDS011;5763;42.714;23.244;2022-09-09T14:54:31;10.63;;;5.80;;
11414;SDS011;5763;42.714;23.244;2022-09-09T14:56:58;10.40;;;5.57;;
11414;SDS011;5763;42.714;23.244;2022-09-09T14:59:25;9.10;;;6.60;;
11414;SDS011;5763;42.714;23.244;2022-09-09T15:01:54;9.48;;;5.53;;
11414;SDS011;5763;42.714;23.244;2022-09-09T15:04:21;6.93;;;4.57;;
11414;SDS011;5763;42.714;23.244;2022-09-09T15:06:48;7.15;;;4.25;;
11414;SDS011;5763;42.714;23.244;2022-09-09T15:09:17;7.85;;;4.18;;